sensor_id;sensor_type;location;lat;lon;timestamp;P1;durP1;ratioP1;P2;durP2;ratioP2
44824;SDS011;30542;47.928;2.138;2023-04-25T00:02:15;1.05;;;0.57;;
44824;SDS011;30542;47.928;2.138;2023-04-25T00:07:15;1.90;;;0.63;;
44824;SDS011;30542;47.928;2.138;2023-04-25T00:12:16;1.38;;;0.60;;
44824;SDS011;30542;47.928;2.138;2023-04-25T00:17:16;1.17;;;0.68;;
44824;SDS011;30542;47.928;2.138;2023-04-25T00:22:17;1.02;;;0.52;;
44824;SDS011;30542;47.928;2.138;2023-04-25T00:27:17;1.58;;;0.57;;
44824;SDS011;30542;47.928;2.138;2023-04-25T00:32:17;1.33;;;0.63;;
44824;SDS011;30542;47.928;2.138;2023-04-25T00:37:18;1.98;;;0.60;;
44824;SDS011;30542;47.928;2.138;2023-04-25T00:42:18;1.27;;;0.68;;
44824;SDS011;30542;47.928;2.138;2023-04-25T00:47:19;0.98;;;0.65;;
44824;SDS011;30542;47.928;2.138;2023-04-25T00:52:19;1.13;;;0.50;;
44824;SDS011;30542;47.928;2.138;2023-04-25T00:57:20;1.30;;;0.50;;
44824;SDS011;30542;47.928;2.138;2023-04-25T01:02:20;1.07;;;0.50;;
44824;SDS011;30542;47.928;2.138;2023-04-25T01:07:21;1.45;;;0.70;;
44824;SDS011;30542;47.928;2.138;2023-04-25T01:12:21;1.30;;;0.60;;
44824;SDS011;30542;47.928;2.138;2023-04-25T01:17:23;1.42;;;0.50;;
44824;SDS011;30542;47.928;2.138;2023-04-25T01:22:23;0.98;;;0.57;;
44824;SDS011;30542;47.928;2.138;2023-04-25T01:27:24;1.65;;;0.50;;
44824;SDS011;30542;47.928;2.138;2023-04-25T01:32:25;1.05;;;0.45;;
44824;SDS011;30542;47.928;2.138;2023-04-25T01:37:27;1.83;;;0.60;;
44824;SDS011;30542;47.928;2.138;2023-04-25T01:42:27;0.80;;;0.55;;
44824;SDS011;30542;47.928;2.138;2023-04-25T01:47:28;1.20;;;0.50;;
44824;SDS011;30542;47.928;2.138;2023-04-25T01:52:28;0.77;;;0.40;;
44824;SDS011;30542;47.928;2.138;2023-04-25T01:57:29;1.17;;;0.57;;
44824;SDS011;30542;47.928;2.138;2023-04-25T02:02:29;0.60;;;0.40;;
44824;SDS011;30542;47.928;2.138;2023-04-25T02:07:30;0.82;;;0.40;;
44824;SDS011;30542;47.928;2.138;2023-04-25T02:12:30;1.50;;;0.60;;
44824;SDS011;30542;47.928;2.138;2023-04-25T02:17:31;0.70;;;0.40;;
44824;SDS011;30542;47.928;2.138;2023-04-25T02:22:32;0.82;;;0.50;;
44824;SDS011;30542;47.928;2.138;2023-04-25T02:27:33;0.85;;;0.50;;
44824;SDS011;30542;47.928;2.138;2023-04-25T02:32:34;0.88;;;0.50;;
44824;SDS011;30542;47.928;2.138;2023-04-25T02:37:36;0.85;;;0.45;;
44824;SDS011;30542;47.928;2.138;2023-04-25T02:42:38;1.75;;;0.45;;
44824;SDS011;30542;47.928;2.138;2023-04-25T02:47:38;1.00;;;0.40;;
44824;SDS011;30542;47.928;2.138;2023-04-25T02:52:39;0.97;;;0.60;;
44824;SDS011;30542;47.928;2.138;2023-04-25T02:57:39;1.03;;;0.40;;
44824;SDS011;30542;47.928;2.138;2023-04-25T03:02:39;1.10;;;0.47;;
44824;SDS011;30542;47.928;2.138;2023-04-25T03:07:40;0.90;;;0.40;;
44824;SDS011;30542;47.928;2.138;2023-04-25T03:12:40;0.80;;;0.40;;
44824;SDS011;30542;47.928;2.138;2023-04-25T03:17:41;1.23;;;0.43;;
44824;SDS011;30542;47.928;2.138;2023-04-25T03:22:41;0.65;;;0.30;;
44824;SDS011;30542;47.928;2.138;2023-04-25T03:27:41;1.33;;;0.30;;
44824;SDS011;30542;47.928;2.138;2023-04-25T03:32:41;0.40;;;0.40;;
44824;SDS011;30542;47.928;2.138;2023-04-25T03:37:42;0.33;;;0.27;;
44824;SDS011;30542;47.928;2.138;2023-04-25T03:42:45;0.60;;;0.40;;
44824;SDS011;30542;47.928;2.138;2023-04-25T03:47:45;0.57;;;0.40;;
44824;SDS011;30542;47.928;2.138;2023-04-25T03:52:46;0.53;;;0.50;;
44824;SDS011;30542;47.928;2.138;2023-04-25T03:57:46;0.70;;;0.30;;
44824;SDS011;30542;47.928;2.138;2023-04-25T04:02:46;0.50;;;0.47;;
44824;SDS011;30542;47.928;2.138;2023-04-25T04:07:47;0.45;;;0.22;;
44824;SDS011;30542;47.928;2.138;2023-04-25T04:12:47;0.50;;;0.30;;
44824;SDS011;30542;47.928;2.138;2023-04-25T04:17:48;0.50;;;0.20;;
44824;SDS011;30542;47.928;2.138;2023-04-25T04:22:48;0.73;;;0.38;;
44824;SDS011;30542;47.928;2.138;2023-04-25T04:27:49;1.90;;;0.40;;
44824;SDS011;30542;47.928;2.138;2023-04-25T04:32:51;3.10;;;0.63;;
44824;SDS011;30542;47.928;2.138;2023-04-25T04:37:52;5.57;;;0.85;;
44824;SDS011;30542;47.928;2.138;2023-04-25T04:42:53;4.47;;;0.80;;
44824;SDS011;30542;47.928;2.138;2023-04-25T04:47:56;4.22;;;1.00;;
44824;SDS011;30542;47.928;2.138;2023-04-25T04:52:56;3.78;;;0.82;;
44824;SDS011;30542;47.928;2.138;2023-04-25T04:57:57;2.07;;;1.07;;
44824;SDS011;30542;47.928;2.138;2023-04-25T05:02:57;1.85;;;0.88;;
44824;SDS011;30542;47.928;2.138;2023-04-25T05:07:57;9.63;;;2.60;;
44824;SDS011;30542;47.928;2.138;2023-04-25T05:12:58;21.13;;;6.20;;
44824;SDS011;30542;47.928;2.138;2023-04-25T05:17:58;22.00;;;5.53;;
44824;SDS011;30542;47.928;2.138;2023-04-25T05:22:58;23.17;;;6.53;;
44824;SDS011;30542;47.928;2.138;2023-04-25T05:28:00;18.58;;;6.00;;
44824;SDS011;30542;47.928;2.138;2023-04-25T05:33:00;12.85;;;4.88;;
44824;SDS011;30542;47.928;2.138;2023-04-25T05:38:01;14.38;;;5.38;;
44824;SDS011;30542;47.928;2.138;2023-04-25T05:43:01;12.63;;;4.30;;
44824;SDS011;30542;47.928;2.138;2023-04-25T05:48:02;12.18;;;4.40;;
44824;SDS011;30542;47.928;2.138;2023-04-25T05:53:02;12.90;;;4.40;;
44824;SDS011;30542;47.928;2.138;2023-04-25T05:58:04;10.53;;;2.90;;
44824;SDS011;30542;47.928;2.138;2023-04-25T06:03:05;8.57;;;3.45;;
44824;SDS011;30542;47.928;2.138;2023-04-25T06:08:07;15.90;;;5.05;;
44824;SDS011;30542;47.928;2.138;2023-04-25T06:13:08;19.88;;;6.03;;
44824;SDS011;30542;47.928;2.138;2023-04-25T06:18:08;18.90;;;5.53;;
44824;SDS011;30542;47.928;2.138;2023-04-25T06:23:09;15.25;;;4.43;;
44824;SDS011;30542;47.928;2.138;2023-04-25T06:28:09;12.55;;;4.10;;
44824;SDS011;30542;47.928;2.138;2023-04-25T06:33:09;11.82;;;3.80;;
44824;SDS011;30542;47.928;2.138;2023-04-25T06:38:10;10.30;;;4.07;;
44824;SDS011;30542;47.928;2.138;2023-04-25T06:43:10;13.83;;;4.17;;
44824;SDS011;30542;47.928;2.138;2023-04-25T06:48:10;12.15;;;4.05;;
44824;SDS011;30542;47.928;2.138;2023-04-25T06:53:11;15.03;;;5.03;;
44824;SDS011;30542;47.928;2.138;2023-04-25T06:58:11;10.47;;;3.53;;
44824;SDS011;30542;47.928;2.138;2023-04-25T07:03:11;10.90;;;3.40;;
44824;SDS011;30542;47.928;2.138;2023-04-25T07:08:12;8.45;;;3.20;;
44824;SDS011;30542;47.928;2.138;2023-04-25T07:13:12;9.80;;;4.00;;
44824;SDS011;30542;47.928;2.138;2023-04-25T07:18:12;9.57;;;3.30;;
44824;SDS011;30542;47.928;2.138;2023-04-25T07:23:13;8.70;;;3.03;;
44824;SDS011;30542;47.928;2.138;2023-04-25T07:28:13;11.80;;;3.30;;
44824;SDS011;30542;47.928;2.138;2023-04-25T07:33:13;8.27;;;2.97;;
44824;SDS011;30542;47.928;2.138;2023-04-25T07:38:14;7.57;;;3.03;;
44824;SDS011;30542;47.928;2.138;2023-04-25T07:43:14;11.47;;;3.30;;
44824;SDS011;30542;47.928;2.138;2023-04-25T07:48:17;7.50;;;2.95;;
44824;SDS011;30542;47.928;2.138;2023-04-25T07:53:20;7.03;;;2.92;;
44824;SDS011;30542;47.928;2.138;2023-04-25T07:58:21;6.95;;;2.72;;
44824;SDS011;30542;47.928;2.138;2023-04-25T08:03:21;8.00;;;2.65;;
44824;SDS011;30542;47.928;2.138;2023-04-25T08:08:22;6.70;;;2.33;;
44824;SDS011;30542;47.928;2.138;2023-04-25T08:13:22;7.37;;;2.97;;
44824;SDS011;30542;47.928;2.138;2023-04-25T08:18:22;6.70;;;2.60;;
44824;SDS011;30542;47.928;2.138;2023-04-25T08:23:23;5.57;;;2.40;;
44824;SDS011;30542;47.928;2.138;2023-04-25T08:28:23;4.55;;;2.08;;
44824;SDS011;30542;47.928;2.138;2023-04-25T08:33:23;5.57;;;2.47;;
44824;SDS011;30542;47.928;2.138;2023-04-25T08:38:24;6.47;;;2.35;;
44824;SDS011;30542;47.928;2.138;2023-04-25T08:43:24;5.10;;;2.13;;
44824;SDS011;30542;47.928;2.138;2023-04-25T08:48:25;4.78;;;2.05;;
44824;SDS011;30542;47.928;2.138;2023-04-25T08:53:30;3.60;;;2.08;;
44824;SDS011;30542;47.928;2.138;2023-04-25T08:58:32;4.93;;;2.13;;
44824;SDS011;30542;47.928;2.138;2023-04-25T09:03:32;6.00;;;2.40;;
44824;SDS011;30542;47.928;2.138;2023-04-25T09:08:33;4.90;;;2.25;;
44824;SDS011;30542;47.928;2.138;2023-04-25T09:13:33;4.60;;;2.13;;
44824;SDS011;30542;47.928;2.138;2023-04-25T09:18:34;5.73;;;2.23;;
44824;SDS011;30542;47.928;2.138;2023-04-25T09:23:45;4.25;;;2.03;;
44824;SDS011;30542;47.928;2.138;2023-04-25T09:28:47;5.50;;;2.28;;
44824;SDS011;30542;47.928;2.138;2023-04-25T09:33:47;3.27;;;1.80;;
44824;SDS011;30542;47.928;2.138;2023-04-25T09:38:48;4.03;;;1.67;;
44824;SDS011;30542;47.928;2.138;2023-04-25T09:43:48;4.15;;;1.80;;
44824;SDS011;30542;47.928;2.138;2023-04-25T09:48:50;3.50;;;1.90;;
44824;SDS011;30542;47.928;2.138;2023-04-25T09:53:51;4.03;;;1.77;;
44824;SDS011;30542;47.928;2.138;2023-04-25T09:58:51;3.75;;;1.70;;
44824;SDS011;30542;47.928;2.138;2023-04-25T10:03:54;2.75;;;1.70;;
44824;SDS011;30542;47.928;2.138;2023-04-25T10:08:57;2.70;;;1.50;;
44824;SDS011;30542;47.928;2.138;2023-04-25T10:13:58;4.90;;;1.65;;
44824;SDS011;30542;47.928;2.138;2023-04-25T10:19:00;4.00;;;1.90;;
44824;SDS011;30542;47.928;2.138;2023-04-25T10:24:01;3.53;;;1.83;;
44824;SDS011;30542;47.928;2.138;2023-04-25T10:29:03;3.15;;;1.33;;
44824;SDS011;30542;47.928;2.138;2023-04-25T10:34:03;4.38;;;1.70;;
44824;SDS011;30542;47.928;2.138;2023-04-25T10:39:05;3.38;;;1.77;;
44824;SDS011;30542;47.928;2.138;2023-04-25T10:44:08;3.45;;;1.63;;
44824;SDS011;30542;47.928;2.138;2023-04-25T10:49:08;3.13;;;1.52;;
44824;SDS011;30542;47.928;2.138;2023-04-25T10:54:10;4.32;;;1.63;;
44824;SDS011;30542;47.928;2.138;2023-04-25T11:04:19;3.10;;;1.58;;
44824;SDS011;30542;47.928;2.138;2023-04-25T11:09:23;3.17;;;1.38;;
44824;SDS011;30542;47.928;2.138;2023-04-25T11:14:24;1.30;;;0.95;;
44824;SDS011;30542;47.928;2.138;2023-04-25T11:19:25;2.08;;;1.05;;
44824;SDS011;30542;47.928;2.138;2023-04-25T11:24:29;2.97;;;1.30;;
44824;SDS011;30542;47.928;2.138;2023-04-25T11:29:31;2.90;;;1.38;;
44824;SDS011;30542;47.928;2.138;2023-04-25T11:34:33;3.38;;;1.05;;
44824;SDS011;30542;47.928;2.138;2023-04-25T11:39:34;3.33;;;1.55;;
44824;SDS011;30542;47.928;2.138;2023-04-25T11:44:34;1.58;;;1.27;;
44824;SDS011;30542;47.928;2.138;2023-04-25T11:49:35;1.63;;;1.00;;
44824;SDS011;30542;47.928;2.138;2023-04-25T11:54:36;1.92;;;1.08;;
44824;SDS011;30542;47.928;2.138;2023-04-25T11:59:37;1.83;;;1.13;;
44824;SDS011;30542;47.928;2.138;2023-04-25T12:04:37;2.40;;;1.13;;
44824;SDS011;30542;47.928;2.138;2023-04-25T12:09:41;1.95;;;1.02;;
44824;SDS011;30542;47.928;2.138;2023-04-25T12:14:41;1.92;;;1.15;;
44824;SDS011;30542;47.928;2.138;2023-04-25T12:19:48;1.17;;;0.90;;
44824;SDS011;30542;47.928;2.138;2023-04-25T12:24:48;1.80;;;1.03;;
44824;SDS011;30542;47.928;2.138;2023-04-25T12:29:53;1.83;;;0.93;;
44824;SDS011;30542;47.928;2.138;2023-04-25T12:34:56;2.17;;;1.15;;
44824;SDS011;30542;47.928;2.138;2023-04-25T12:39:56;1.45;;;0.85;;
44824;SDS011;30542;47.928;2.138;2023-04-25T12:44:57;1.00;;;0.70;;
44824;SDS011;30542;47.928;2.138;2023-04-25T12:49:57;1.47;;;0.70;;
44824;SDS011;30542;47.928;2.138;2023-04-25T12:54:57;1.48;;;0.93;;
44824;SDS011;30542;47.928;2.138;2023-04-25T12:59:58;1.45;;;0.63;;
44824;SDS011;30542;47.928;2.138;2023-04-25T13:04:58;1.67;;;0.85;;
44824;SDS011;30542;47.928;2.138;2023-04-25T13:09:59;1.38;;;0.82;;
44824;SDS011;30542;47.928;2.138;2023-04-25T13:15:00;1.20;;;0.70;;
44824;SDS011;30542;47.928;2.138;2023-04-25T13:20:00;1.10;;;0.67;;
44824;SDS011;30542;47.928;2.138;2023-04-25T13:25:01;1.67;;;0.80;;
44824;SDS011;30542;47.928;2.138;2023-04-25T13:30:02;0.75;;;0.70;;
44824;SDS011;30542;47.928;2.138;2023-04-25T13:35:08;1.95;;;0.75;;
44824;SDS011;30542;47.928;2.138;2023-04-25T13:40:10;1.80;;;0.88;;
44824;SDS011;30542;47.928;2.138;2023-04-25T13:45:11;1.17;;;0.60;;
44824;SDS011;30542;47.928;2.138;2023-04-25T13:50:12;1.65;;;0.70;;
44824;SDS011;30542;47.928;2.138;2023-04-25T13:55:13;1.23;;;0.77;;
44824;SDS011;30542;47.928;2.138;2023-04-25T14:00:14;1.13;;;0.83;;
44824;SDS011;30542;47.928;2.138;2023-04-25T14:05:14;1.30;;;0.73;;
44824;SDS011;30542;47.928;2.138;2023-04-25T14:10:15;1.23;;;0.80;;
44824;SDS011;30542;47.928;2.138;2023-04-25T14:15:15;1.33;;;0.90;;
44824;SDS011;30542;47.928;2.138;2023-04-25T14:20:15;0.77;;;0.53;;
44824;SDS011;30542;47.928;2.138;2023-04-25T14:25:20;1.63;;;0.60;;
44824;SDS011;30542;47.928;2.138;2023-04-25T14:30:21;1.25;;;0.80;;
44824;SDS011;30542;47.928;2.138;2023-04-25T14:35:22;1.25;;;0.52;;
44824;SDS011;30542;47.928;2.138;2023-04-25T14:40:23;0.60;;;0.60;;
44824;SDS011;30542;47.928;2.138;2023-04-25T14:45:23;1.03;;;0.70;;
44824;SDS011;30542;47.928;2.138;2023-04-25T14:50:23;1.50;;;0.67;;
44824;SDS011;30542;47.928;2.138;2023-04-25T14:55:24;0.50;;;0.50;;
44824;SDS011;30542;47.928;2.138;2023-04-25T15:00:24;1.02;;;0.80;;
44824;SDS011;30542;47.928;2.138;2023-04-25T15:05:25;1.13;;;0.60;;
44824;SDS011;30542;47.928;2.138;2023-04-25T15:10:25;1.07;;;0.77;;
44824;SDS011;30542;47.928;2.138;2023-04-25T15:15:26;1.63;;;0.60;;
44824;SDS011;30542;47.928;2.138;2023-04-25T15:20:26;1.20;;;0.70;;
44824;SDS011;30542;47.928;2.138;2023-04-25T15:25:27;1.45;;;0.80;;
44824;SDS011;30542;47.928;2.138;2023-04-25T15:30:28;0.70;;;0.50;;
44824;SDS011;30542;47.928;2.138;2023-04-25T15:35:28;0.60;;;0.47;;
44824;SDS011;30542;47.928;2.138;2023-04-25T15:40:29;0.73;;;0.50;;
44824;SDS011;30542;47.928;2.138;2023-04-25T15:45:29;1.20;;;0.70;;
44824;SDS011;30542;47.928;2.138;2023-04-25T15:50:31;0.82;;;0.40;;
44824;SDS011;30542;47.928;2.138;2023-04-25T15:55:32;1.25;;;0.52;;
44824;SDS011;30542;47.928;2.138;2023-04-25T16:00:33;1.13;;;0.90;;
44824;SDS011;30542;47.928;2.138;2023-04-25T16:05:35;1.95;;;0.50;;
44824;SDS011;30542;47.928;2.138;2023-04-25T16:10:35;1.70;;;0.60;;
44824;SDS011;30542;47.928;2.138;2023-04-25T16:15:35;0.70;;;0.60;;
44824;SDS011;30542;47.928;2.138;2023-04-25T16:20:36;3.17;;;0.83;;
44824;SDS011;30542;47.928;2.138;2023-04-25T16:25:36;1.07;;;0.70;;
44824;SDS011;30542;47.928;2.138;2023-04-25T16:30:37;1.50;;;0.73;;
44824;SDS011;30542;47.928;2.138;2023-04-25T16:35:37;3.33;;;0.98;;
44824;SDS011;30542;47.928;2.138;2023-04-25T16:40:37;1.50;;;0.93;;
44824;SDS011;30542;47.928;2.138;2023-04-25T16:45:38;2.17;;;1.10;;
44824;SDS011;30542;47.928;2.138;2023-04-25T16:50:38;2.03;;;0.77;;
44824;SDS011;30542;47.928;2.138;2023-04-25T16:55:38;2.00;;;0.60;;
44824;SDS011;30542;47.928;2.138;2023-04-25T17:00:39;2.97;;;0.90;;
44824;SDS011;30542;47.928;2.138;2023-04-25T17:05:40;1.33;;;0.65;;
44824;SDS011;30542;47.928;2.138;2023-04-25T17:10:41;2.38;;;1.10;;
44824;SDS011;30542;47.928;2.138;2023-04-25T17:15:41;1.23;;;0.70;;
44824;SDS011;30542;47.928;2.138;2023-04-25T17:20:42;1.20;;;0.60;;
44824;SDS011;30542;47.928;2.138;2023-04-25T17:25:42;1.80;;;0.80;;
44824;SDS011;30542;47.928;2.138;2023-04-25T17:30:42;1.70;;;0.50;;
44824;SDS011;30542;47.928;2.138;2023-04-25T17:35:43;2.90;;;0.90;;
44824;SDS011;30542;47.928;2.138;2023-04-25T17:40:43;2.03;;;0.60;;
44824;SDS011;30542;47.928;2.138;2023-04-25T17:45:44;3.40;;;0.80;;
44824;SDS011;30542;47.928;2.138;2023-04-25T17:50:44;3.80;;;1.13;;
44824;SDS011;30542;47.928;2.138;2023-04-25T17:55:44;1.13;;;0.63;;
44824;SDS011;30542;47.928;2.138;2023-04-25T18:00:45;1.40;;;0.70;;
44824;SDS011;30542;47.928;2.138;2023-04-25T18:05:45;2.25;;;0.80;;
44824;SDS011;30542;47.928;2.138;2023-04-25T18:10:46;3.73;;;0.93;;
44824;SDS011;30542;47.928;2.138;2023-04-25T18:15:46;1.55;;;0.77;;
44824;SDS011;30542;47.928;2.138;2023-04-25T18:20:47;2.83;;;0.70;;
44824;SDS011;30542;47.928;2.138;2023-04-25T18:25:47;0.87;;;0.60;;
44824;SDS011;30542;47.928;2.138;2023-04-25T18:30:50;2.00;;;1.00;;
44824;SDS011;30542;47.928;2.138;2023-04-25T18:35:51;1.53;;;0.60;;
44824;SDS011;30542;47.928;2.138;2023-04-25T18:40:51;1.17;;;0.70;;
44824;SDS011;30542;47.928;2.138;2023-04-25T18:45:51;1.43;;;0.60;;
44824;SDS011;30542;47.928;2.138;2023-04-25T18:56:48;2.85;;;1.00;;
44824;SDS011;30542;47.928;2.138;2023-04-25T19:01:48;1.27;;;0.70;;
44824;SDS011;30542;47.928;2.138;2023-04-25T19:06:50;1.27;;;0.60;;
44824;SDS011;30542;47.928;2.138;2023-04-25T19:11:51;3.30;;;0.90;;
44824;SDS011;30542;47.928;2.138;2023-04-25T19:16:51;4.07;;;0.97;;
44824;SDS011;30542;47.928;2.138;2023-04-25T19:21:52;1.23;;;0.93;;
44824;SDS011;30542;47.928;2.138;2023-04-25T19:26:52;0.90;;;0.50;;
44824;SDS011;30542;47.928;2.138;2023-04-25T19:31:53;1.67;;;0.63;;
44824;SDS011;30542;47.928;2.138;2023-04-25T19:36:53;0.80;;;0.70;;
44824;SDS011;30542;47.928;2.138;2023-04-25T19:41:54;0.93;;;0.52;;
44824;SDS011;30542;47.928;2.138;2023-04-25T19:46:55;0.80;;;0.60;;
44824;SDS011;30542;47.928;2.138;2023-04-25T19:51:56;2.00;;;0.90;;
44824;SDS011;30542;47.928;2.138;2023-04-25T19:56:56;0.60;;;0.60;;
44824;SDS011;30542;47.928;2.138;2023-04-25T20:01:58;1.77;;;0.82;;
44824;SDS011;30542;47.928;2.138;2023-04-25T20:06:59;1.60;;;0.70;;
44824;SDS011;30542;47.928;2.138;2023-04-25T20:12:00;1.02;;;0.73;;
44824;SDS011;30542;47.928;2.138;2023-04-25T20:17:03;1.33;;;0.60;;
44824;SDS011;30542;47.928;2.138;2023-04-25T20:22:04;1.02;;;0.60;;
44824;SDS011;30542;47.928;2.138;2023-04-25T20:27:04;1.02;;;0.60;;
44824;SDS011;30542;47.928;2.138;2023-04-25T20:32:04;2.30;;;0.80;;
44824;SDS011;30542;47.928;2.138;2023-04-25T20:37:05;1.30;;;0.60;;
44824;SDS011;30542;47.928;2.138;2023-04-25T20:42:07;0.70;;;0.55;;
44824;SDS011;30542;47.928;2.138;2023-04-25T20:47:07;0.90;;;0.60;;
44824;SDS011;30542;47.928;2.138;2023-04-25T20:52:08;1.20;;;0.63;;
44824;SDS011;30542;47.928;2.138;2023-04-25T20:57:08;1.35;;;0.55;;
44824;SDS011;30542;47.928;2.138;2023-04-25T21:02:09;1.07;;;0.80;;
44824;SDS011;30542;47.928;2.138;2023-04-25T21:07:11;1.48;;;0.60;;
44824;SDS011;30542;47.928;2.138;2023-04-25T21:12:12;1.02;;;0.65;;
44824;SDS011;30542;47.928;2.138;2023-04-25T21:17:12;4.00;;;0.70;;
44824;SDS011;30542;47.928;2.138;2023-04-25T21:22:12;1.10;;;0.60;;
44824;SDS011;30542;47.928;2.138;2023-04-25T21:27:13;1.40;;;0.50;;
44824;SDS011;30542;47.928;2.138;2023-04-25T21:32:13;0.60;;;0.50;;
44824;SDS011;30542;47.928;2.138;2023-04-25T21:37:16;1.88;;;0.68;;
44824;SDS011;30542;47.928;2.138;2023-04-25T21:42:16;1.00;;;0.73;;
44824;SDS011;30542;47.928;2.138;2023-04-25T21:47:17;1.50;;;1.10;;
44824;SDS011;30542;47.928;2.138;2023-04-25T21:52:17;1.50;;;0.70;;
44824;SDS011;30542;47.928;2.138;2023-04-25T21:57:18;2.00;;;0.90;;
44824;SDS011;30542;47.928;2.138;2023-04-25T22:02:20;1.30;;;0.90;;
44824;SDS011;30542;47.928;2.138;2023-04-25T22:07:21;1.20;;;0.63;;
44824;SDS011;30542;47.928;2.138;2023-04-25T22:12:21;3.03;;;0.70;;
44824;SDS011;30542;47.928;2.138;2023-04-25T22:17:22;2.53;;;0.73;;
44824;SDS011;30542;47.928;2.138;2023-04-25T22:22:25;1.80;;;0.57;;
44824;SDS011;30542;47.928;2.138;2023-04-25T22:27:26;1.07;;;0.70;;
44824;SDS011;30542;47.928;2.138;2023-04-25T22:32:26;1.88;;;0.63;;
44824;SDS011;30542;47.928;2.138;2023-04-25T22:37:27;1.37;;;0.70;;
44824;SDS011;30542;47.928;2.138;2023-04-25T22:42:27;1.40;;;0.80;;
44824;SDS011;30542;47.928;2.138;2023-04-25T22:47:28;2.17;;;0.80;;
44824;SDS011;30542;47.928;2.138;2023-04-25T22:52:28;1.05;;;0.90;;
44824;SDS011;30542;47.928;2.138;2023-04-25T22:57:29;1.53;;;1.03;;
44824;SDS011;30542;47.928;2.138;2023-04-25T23:02:29;1.50;;;0.80;;
44824;SDS011;30542;47.928;2.138;2023-04-25T23:07:29;1.55;;;0.70;;
44824;SDS011;30542;47.928;2.138;2023-04-25T23:12:32;0.73;;;0.57;;
44824;SDS011;30542;47.928;2.138;2023-04-25T23:17:32;1.63;;;0.70;;
44824;SDS011;30542;47.928;2.138;2023-04-25T23:22:32;1.40;;;0.77;;
44824;SDS011;30542;47.928;2.138;2023-04-25T23:27:33;1.88;;;0.98;;
44824;SDS011;30542;47.928;2.138;2023-04-25T23:32:33;1.13;;;0.80;;
44824;SDS011;30542;47.928;2.138;2023-04-25T23:37:34;1.42;;;0.90;;
44824;SDS011;30542;47.928;2.138;2023-04-25T23:42:39;1.45;;;0.90;;
44824;SDS011;30542;47.928;2.138;2023-04-25T23:47:40;1.45;;;0.70;;
44824;SDS011;30542;47.928;2.138;2023-04-25T23:52:40;1.23;;;1.00;;
44824;SDS011;30542;47.928;2.138;2023-04-25T23:57:40;1.37;;;1.00;;
